sensor_id;sensor_type;location;lat;lon;timestamp;pressure;altitude;pressure_sealevel;temperature;humidity
12077;BME280;12420;42.676;23.262;2023-09-30T00:01:57;95029.97;;;17.39;78.53
12077;BME280;12420;42.676;23.262;2023-09-30T00:04:24;94983.41;;;17.11;77.21
12077;BME280;12420;42.676;23.262;2023-09-30T00:06:52;95028.28;;;17.36;76.73
12077;BME280;12420;42.676;23.262;2023-09-30T00:09:20;95014.69;;;17.25;77.25
12077;BME280;12420;42.676;23.262;2023-09-30T00:11:47;95018.78;;;17.31;77.17
12077;BME280;12420;42.676;23.262;2023-09-30T00:14:14;95020.47;;;17.27;77.59
12077;BME280;12420;42.676;23.262;2023-09-30T00:16:42;95020.88;;;17.23;77.78
12077;BME280;12420;42.676;23.262;2023-09-30T00:19:09;95027.59;;;17.20;77.93
12077;BME280;12420;42.676;23.262;2023-09-30T00:21:36;95022.94;;;17.15;78.07
12077;BME280;12420;42.676;23.262;2023-09-30T00:24:03;95024.22;;;17.22;78.14
12077;BME280;12420;42.676;23.262;2023-09-30T00:26:32;95019.19;;;17.28;77.92
12077;BME280;12420;42.676;23.262;2023-09-30T00:28:58;95015.63;;;17.27;77.89
12077;BME280;12420;42.676;23.262;2023-09-30T00:31:25;95027.56;;;17.28;77.54
12077;BME280;12420;42.676;23.262;2023-09-30T00:33:52;94993.66;;;17.16;77.98
12077;BME280;12420;42.676;23.262;2023-09-30T00:36:19;95016.53;;;17.38;78.40
12077;BME280;12420;42.676;23.262;2023-09-30T00:38:46;95008.09;;;17.45;78.50
12077;BME280;12420;42.676;23.262;2023-09-30T00:41:13;95010.91;;;17.53;77.93
12077;BME280;12420;42.676;23.262;2023-09-30T00:43:41;94979.06;;;17.33;77.68
12077;BME280;12420;42.676;23.262;2023-09-30T00:46:16;95011.81;;;17.63;77.03
12077;BME280;12420;42.676;23.262;2023-09-30T00:48:45;95014.41;;;17.69;76.34
12077;BME280;12420;42.676;23.262;2023-09-30T00:51:12;94976.25;;;17.41;75.99
12077;BME280;12420;42.676;23.262;2023-09-30T00:53:39;95009.34;;;17.67;75.69
12077;BME280;12420;42.676;23.262;2023-09-30T00:56:06;94989.06;;;17.59;75.71
12077;BME280;12420;42.676;23.262;2023-09-30T00:58:34;95016.25;;;17.74;75.92
12077;BME280;12420;42.676;23.262;2023-09-30T01:01:04;95007.09;;;17.73;75.36
12077;BME280;12420;42.676;23.262;2023-09-30T01:03:33;95005.78;;;17.74;75.27
12077;BME280;12420;42.676;23.262;2023-09-30T01:06:01;95009.31;;;17.75;75.14
12077;BME280;12420;42.676;23.262;2023-09-30T01:08:28;95004.31;;;17.73;75.66
12077;BME280;12420;42.676;23.262;2023-09-30T01:10:55;95008.41;;;17.72;75.68
12077;BME280;12420;42.676;23.262;2023-09-30T01:13:22;95004.31;;;17.73;75.34
12077;BME280;12420;42.676;23.262;2023-09-30T01:15:49;94978.59;;;17.60;75.46
12077;BME280;12420;42.676;23.262;2023-09-30T01:18:17;94995.72;;;17.71;75.51
12077;BME280;12420;42.676;23.262;2023-09-30T01:20:44;94991.25;;;17.68;75.71
12077;BME280;12420;42.676;23.262;2023-09-30T01:23:12;94999.81;;;17.70;75.62
12077;BME280;12420;42.676;23.262;2023-09-30T01:25:39;94999.44;;;17.74;75.41
12077;BME280;12420;42.676;23.262;2023-09-30T01:28:08;94982.53;;;17.56;75.59
12077;BME280;12420;42.676;23.262;2023-09-30T01:30:35;94976.78;;;17.47;75.39
12077;BME280;12420;42.676;23.262;2023-09-30T01:33:03;94996.91;;;17.61;75.56
12077;BME280;12420;42.676;23.262;2023-09-30T01:35:29;94939.59;;;17.13;76.03
12077;BME280;12420;42.676;23.262;2023-09-30T01:37:56;95000.03;;;17.65;76.33
12077;BME280;12420;42.676;23.262;2023-09-30T01:40:26;94995.53;;;17.69;76.60
12077;BME280;12420;42.676;23.262;2023-09-30T01:42:53;95001.84;;;17.77;76.99
12077;BME280;12420;42.676;23.262;2023-09-30T01:45:19;94987.16;;;17.69;77.92
12077;BME280;12420;42.676;23.262;2023-09-30T01:47:46;94999.63;;;17.84;76.98
12077;BME280;12420;42.676;23.262;2023-09-30T01:50:13;94998.69;;;17.81;76.42
12077;BME280;12420;42.676;23.262;2023-09-30T01:52:40;95000.38;;;17.84;76.64
12077;BME280;12420;42.676;23.262;2023-09-30T01:55:08;94999.97;;;17.88;76.67
12077;BME280;12420;42.676;23.262;2023-09-30T01:57:36;94981.69;;;17.79;76.75
12077;BME280;12420;42.676;23.262;2023-09-30T02:00:03;95000.16;;;17.90;77.20
12077;BME280;12420;42.676;23.262;2023-09-30T02:02:34;95004.59;;;17.93;77.94
12077;BME280;12420;42.676;23.262;2023-09-30T02:05:02;94991.56;;;17.88;77.41
12077;BME280;12420;42.676;23.262;2023-09-30T02:07:29;94984.81;;;17.91;76.96
12077;BME280;12420;42.676;23.262;2023-09-30T02:09:57;94995.25;;;17.98;76.45
12077;BME280;12420;42.676;23.262;2023-09-30T02:12:26;94985.38;;;17.97;75.46
12077;BME280;12420;42.676;23.262;2023-09-30T02:14:54;94989.66;;;17.98;76.07
12077;BME280;12420;42.676;23.262;2023-09-30T02:17:21;94990.38;;;17.98;76.03
12077;BME280;12420;42.676;23.262;2023-09-30T02:19:48;94980.34;;;17.88;75.42
12077;BME280;12420;42.676;23.262;2023-09-30T02:22:15;94990.78;;;17.95;75.93
12077;BME280;12420;42.676;23.262;2023-09-30T02:24:42;94988.94;;;17.90;76.16
12077;BME280;12420;42.676;23.262;2023-09-30T02:27:09;94996.19;;;17.93;76.34
12077;BME280;12420;42.676;23.262;2023-09-30T02:29:35;94955.47;;;17.59;76.97
12077;BME280;12420;42.676;23.262;2023-09-30T02:32:04;94978.53;;;17.75;77.25
12077;BME280;12420;42.676;23.262;2023-09-30T02:34:30;94996.81;;;17.84;76.94
12077;BME280;12420;42.676;23.262;2023-09-30T02:36:57;94988.09;;;17.64;77.77
12077;BME280;12420;42.676;23.262;2023-09-30T02:39:25;94987.59;;;17.43;78.71
12077;BME280;12420;42.676;23.262;2023-09-30T02:41:52;94978.91;;;17.23;79.58
12077;BME280;12420;42.676;23.262;2023-09-30T02:44:19;94982.66;;;17.18;80.33
12077;BME280;12420;42.676;23.262;2023-09-30T02:46:46;94991.75;;;17.26;81.05
12077;BME280;12420;42.676;23.262;2023-09-30T02:49:14;94996.81;;;17.20;81.28
12077;BME280;12420;42.676;23.262;2023-09-30T02:51:41;94968.91;;;16.89;82.26
12077;BME280;12420;42.676;23.262;2023-09-30T02:54:07;95017.38;;;17.00;83.14
12077;BME280;12420;42.676;23.262;2023-09-30T02:56:34;95000.41;;;16.98;83.59
12077;BME280;12420;42.676;23.262;2023-09-30T02:59:02;94992.00;;;16.98;83.65
12077;BME280;12420;42.676;23.262;2023-09-30T03:01:30;94976.91;;;16.70;84.42
12077;BME280;12420;42.676;23.262;2023-09-30T03:03:57;94956.78;;;16.48;84.65
12077;BME280;12420;42.676;23.262;2023-09-30T03:06:25;95009.13;;;16.71;84.27
12077;BME280;12420;42.676;23.262;2023-09-30T03:08:52;94994.59;;;16.57;83.70
12077;BME280;12420;42.676;23.262;2023-09-30T03:11:19;94973.72;;;16.43;84.86
12077;BME280;12420;42.676;23.262;2023-09-30T03:13:46;94997.59;;;16.59;85.41
12077;BME280;12420;42.676;23.262;2023-09-30T03:16:13;94994.22;;;16.53;83.96
12077;BME280;12420;42.676;23.262;2023-09-30T03:18:40;95004.84;;;16.55;83.96
12077;BME280;12420;42.676;23.262;2023-09-30T03:21:14;94994.22;;;16.61;84.61
12077;BME280;12420;42.676;23.262;2023-09-30T03:23:43;94997.59;;;16.52;85.31
12077;BME280;12420;42.676;23.262;2023-09-30T03:26:09;94994.78;;;16.52;84.51
12077;BME280;12420;42.676;23.262;2023-09-30T03:28:37;94997.75;;;16.46;84.73
12077;BME280;12420;42.676;23.262;2023-09-30T03:31:04;94995.72;;;16.46;85.11
12077;BME280;12420;42.676;23.262;2023-09-30T03:33:32;94993.47;;;16.45;83.97
12077;BME280;12420;42.676;23.262;2023-09-30T03:35:59;94989.19;;;16.44;82.89
12077;BME280;12420;42.676;23.262;2023-09-30T03:38:25;94989.75;;;16.50;82.67
12077;BME280;12420;42.676;23.262;2023-09-30T03:40:54;94989.22;;;16.52;82.97
12077;BME280;12420;42.676;23.262;2023-09-30T03:43:23;94991.41;;;16.45;82.26
12077;BME280;12420;42.676;23.262;2023-09-30T03:45:50;94968.69;;;16.11;82.10
12077;BME280;12420;42.676;23.262;2023-09-30T03:48:18;94988.78;;;16.24;81.43
12077;BME280;12420;42.676;23.262;2023-09-30T03:50:45;94979.09;;;16.25;82.01
12077;BME280;12420;42.676;23.262;2023-09-30T03:53:11;94980.63;;;16.34;83.06
12077;BME280;12420;42.676;23.262;2023-09-30T03:55:38;94982.28;;;16.37;84.04
12077;BME280;12420;42.676;23.262;2023-09-30T03:58:07;94986.97;;;16.42;84.11
12077;BME280;12420;42.676;23.262;2023-09-30T04:00:34;94972.59;;;16.38;83.31
12077;BME280;12420;42.676;23.262;2023-09-30T04:03:01;94981.38;;;16.42;83.41
12077;BME280;12420;42.676;23.262;2023-09-30T04:05:28;94988.44;;;16.51;83.48
12077;BME280;12420;42.676;23.262;2023-09-30T04:07:57;94962.94;;;16.32;83.34
12077;BME280;12420;42.676;23.262;2023-09-30T04:10:24;94975.59;;;16.40;82.83
12077;BME280;12420;42.676;23.262;2023-09-30T04:12:51;94982.31;;;16.45;82.60
12077;BME280;12420;42.676;23.262;2023-09-30T04:15:19;94992.16;;;16.54;83.15
12077;BME280;12420;42.676;23.262;2023-09-30T04:17:46;94996.28;;;16.53;83.79
12077;BME280;12420;42.676;23.262;2023-09-30T04:20:12;95003.19;;;16.52;83.97
12077;BME280;12420;42.676;23.262;2023-09-30T04:22:47;94999.06;;;16.45;83.65
12077;BME280;12420;42.676;23.262;2023-09-30T04:25:14;95010.63;;;16.49;83.55
12077;BME280;12420;42.676;23.262;2023-09-30T04:27:42;94967.78;;;16.31;82.80
12077;BME280;12420;42.676;23.262;2023-09-30T04:30:10;95005.59;;;16.47;83.08
12077;BME280;12420;42.676;23.262;2023-09-30T04:32:38;95017.31;;;16.46;83.75
12077;BME280;12420;42.676;23.262;2023-09-30T04:35:05;95014.16;;;16.49;84.29
12077;BME280;12420;42.676;23.262;2023-09-30T04:37:33;95013.03;;;16.37;84.17
12077;BME280;12420;42.676;23.262;2023-09-30T04:40:02;95018.81;;;16.39;85.01
12077;BME280;12420;42.676;23.262;2023-09-30T04:42:33;95006.28;;;16.25;84.92
12077;BME280;12420;42.676;23.262;2023-09-30T04:45:02;95026.25;;;16.29;86.35
12077;BME280;12420;42.676;23.262;2023-09-30T04:47:29;95024.91;;;16.22;86.46
12077;BME280;12420;42.676;23.262;2023-09-30T04:49:59;95010.00;;;16.20;87.60
12077;BME280;12420;42.676;23.262;2023-09-30T04:52:30;95008.88;;;16.15;87.20
12077;BME280;12420;42.676;23.262;2023-09-30T04:54:56;95032.78;;;16.39;86.75
12077;BME280;12420;42.676;23.262;2023-09-30T04:57:23;95024.19;;;16.37;86.56
12077;BME280;12420;42.676;23.262;2023-09-30T04:59:50;95032.03;;;16.46;86.85
12077;BME280;12420;42.676;23.262;2023-09-30T05:02:17;95057.75;;;16.53;87.45
12077;BME280;12420;42.676;23.262;2023-09-30T05:04:44;95035.22;;;16.58;85.93
12077;BME280;12420;42.676;23.262;2023-09-30T05:07:13;95031.28;;;16.54;84.96
12077;BME280;12420;42.676;23.262;2023-09-30T05:09:40;95038.00;;;16.50;84.57
12077;BME280;12420;42.676;23.262;2023-09-30T05:12:07;95044.34;;;16.59;85.02
12077;BME280;12420;42.676;23.262;2023-09-30T05:14:36;95026.81;;;16.50;85.03
12077;BME280;12420;42.676;23.262;2023-09-30T05:17:04;95005.97;;;16.52;84.24
12077;BME280;12420;42.676;23.262;2023-09-30T05:19:39;95037.09;;;16.79;84.64
12077;BME280;12420;42.676;23.262;2023-09-30T05:22:28;95022.59;;;16.80;83.97
12077;BME280;12420;42.676;23.262;2023-09-30T05:25:00;95038.41;;;17.01;83.87
12077;BME280;12420;42.676;23.262;2023-09-30T05:27:27;95037.09;;;17.09;83.01
12077;BME280;12420;42.676;23.262;2023-09-30T05:29:54;95005.59;;;16.93;82.48
12077;BME280;12420;42.676;23.262;2023-09-30T05:32:21;95039.50;;;17.28;82.16
12077;BME280;12420;42.676;23.262;2023-09-30T05:34:48;95043.75;;;17.45;81.72
12077;BME280;12420;42.676;23.262;2023-09-30T05:37:15;95041.13;;;17.54;81.88
12077;BME280;12420;42.676;23.262;2023-09-30T05:39:45;95004.22;;;17.41;81.58
12077;BME280;12420;42.676;23.262;2023-09-30T05:42:13;95014.06;;;17.57;80.71
12077;BME280;12420;42.676;23.262;2023-09-30T05:44:40;95021.09;;;17.73;80.84
12077;BME280;12420;42.676;23.262;2023-09-30T05:47:07;95043.03;;;18.00;81.51
12077;BME280;12420;42.676;23.262;2023-09-30T05:49:34;95050.84;;;18.09;80.78
12077;BME280;12420;42.676;23.262;2023-09-30T05:52:01;95059.88;;;18.33;79.72
12077;BME280;12420;42.676;23.262;2023-09-30T05:54:28;95038.75;;;18.32;78.60
12077;BME280;12420;42.676;23.262;2023-09-30T05:56:56;95060.47;;;18.56;77.68
12077;BME280;12420;42.676;23.262;2023-09-30T05:59:23;95061.34;;;18.66;77.54
12077;BME280;12420;42.676;23.262;2023-09-30T06:01:51;95045.66;;;18.63;77.10
12077;BME280;12420;42.676;23.262;2023-09-30T06:04:18;95058.91;;;18.71;77.30
12077;BME280;12420;42.676;23.262;2023-09-30T06:06:46;95062.75;;;18.83;77.96
12077;BME280;12420;42.676;23.262;2023-09-30T06:09:13;95071.63;;;18.97;76.78
12077;BME280;12420;42.676;23.262;2023-09-30T06:11:39;95072.91;;;19.03;75.07
12077;BME280;12420;42.676;23.262;2023-09-30T06:14:07;95059.53;;;19.12;75.63
12077;BME280;12420;42.676;23.262;2023-09-30T06:16:34;95071.78;;;19.24;74.68
12077;BME280;12420;42.676;23.262;2023-09-30T06:19:01;95073.44;;;19.27;74.59
12077;BME280;12420;42.676;23.262;2023-09-30T06:21:29;95077.16;;;19.29;74.29
12077;BME280;12420;42.676;23.262;2023-09-30T06:23:56;95082.19;;;19.31;74.76
12077;BME280;12420;42.676;23.262;2023-09-30T06:26:23;95045.69;;;19.14;74.43
12077;BME280;12420;42.676;23.262;2023-09-30T06:28:54;95064.44;;;19.28;75.40
12077;BME280;12420;42.676;23.262;2023-09-30T06:31:22;95088.06;;;19.43;73.74
12077;BME280;12420;42.676;23.262;2023-09-30T06:33:49;95088.41;;;19.47;73.68
12077;BME280;12420;42.676;23.262;2023-09-30T06:36:16;95080.47;;;19.53;73.05
12077;BME280;12420;42.676;23.262;2023-09-30T06:38:43;95079.75;;;19.52;74.08
12077;BME280;12420;42.676;23.262;2023-09-30T06:41:16;95091.63;;;19.61;72.08
12077;BME280;12420;42.676;23.262;2023-09-30T06:43:43;95060.44;;;19.57;70.68
12077;BME280;12420;42.676;23.262;2023-09-30T06:46:10;95086.22;;;19.80;71.33
12077;BME280;12420;42.676;23.262;2023-09-30T06:48:39;95073.09;;;19.83;68.95
12077;BME280;12420;42.676;23.262;2023-09-30T06:51:12;95069.56;;;19.82;69.95
12077;BME280;12420;42.676;23.262;2023-09-30T06:53:40;95088.19;;;20.05;69.62
12077;BME280;12420;42.676;23.262;2023-09-30T06:56:07;95089.25;;;20.09;68.42
12077;BME280;12420;42.676;23.262;2023-09-30T06:58:34;95096.94;;;20.26;67.21
12077;BME280;12420;42.676;23.262;2023-09-30T07:01:01;95104.09;;;20.37;66.73
12077;BME280;12420;42.676;23.262;2023-09-30T07:03:28;95070.09;;;20.15;66.30
12077;BME280;12420;42.676;23.262;2023-09-30T07:05:57;95103.59;;;20.48;64.84
12077;BME280;12420;42.676;23.262;2023-09-30T07:08:26;95097.53;;;20.52;64.64
12077;BME280;12420;42.676;23.262;2023-09-30T07:10:54;95099.94;;;20.55;63.34
12077;BME280;12420;42.676;23.262;2023-09-30T07:13:21;95109.06;;;20.73;63.15
12077;BME280;12420;42.676;23.262;2023-09-30T07:15:48;95106.38;;;20.66;60.08
12077;BME280;12420;42.676;23.262;2023-09-30T07:18:16;95102.94;;;20.85;60.95
12077;BME280;12420;42.676;23.262;2023-09-30T07:20:43;95101.75;;;20.88;58.04
12077;BME280;12420;42.676;23.262;2023-09-30T07:23:11;95106.81;;;20.89;59.44
12077;BME280;12420;42.676;23.262;2023-09-30T07:25:38;95112.19;;;21.05;57.97
12077;BME280;12420;42.676;23.262;2023-09-30T07:28:05;95116.53;;;21.15;57.90
12077;BME280;12420;42.676;23.262;2023-09-30T07:30:37;95088.97;;;21.14;56.70
12077;BME280;12420;42.676;23.262;2023-09-30T07:33:04;95106.50;;;21.32;55.48
12077;BME280;12420;42.676;23.262;2023-09-30T07:35:30;95101.34;;;21.38;54.54
12077;BME280;12420;42.676;23.262;2023-09-30T07:37:57;95128.84;;;21.57;53.44
12077;BME280;12420;42.676;23.262;2023-09-30T07:40:25;95111.38;;;21.68;53.39
12077;BME280;12420;42.676;23.262;2023-09-30T07:42:53;95085.41;;;21.50;53.36
12077;BME280;12420;42.676;23.262;2023-09-30T07:45:20;95112.59;;;21.94;53.51
12077;BME280;12420;42.676;23.262;2023-09-30T07:47:47;95130.41;;;22.06;51.84
12077;BME280;12420;42.676;23.262;2023-09-30T07:50:14;95101.78;;;21.91;50.57
12077;BME280;12420;42.676;23.262;2023-09-30T07:52:41;95115.13;;;22.09;50.95
12077;BME280;12420;42.676;23.262;2023-09-30T07:55:09;95083.50;;;21.82;50.66
12077;BME280;12420;42.676;23.262;2023-09-30T07:57:39;95112.44;;;22.11;51.07
12077;BME280;12420;42.676;23.262;2023-09-30T08:00:07;95120.31;;;22.23;49.14
12077;BME280;12420;42.676;23.262;2023-09-30T08:02:34;95119.59;;;22.22;48.89
12077;BME280;12420;42.676;23.262;2023-09-30T08:05:02;95120.00;;;22.38;48.08
12077;BME280;12420;42.676;23.262;2023-09-30T08:07:31;95117.78;;;22.46;48.48
12077;BME280;12420;42.676;23.262;2023-09-30T08:09:58;95132.75;;;22.49;47.66
12077;BME280;12420;42.676;23.262;2023-09-30T08:12:24;95111.84;;;22.52;47.84
12077;BME280;12420;42.676;23.262;2023-09-30T08:14:52;95104.28;;;22.45;47.30
12077;BME280;12420;42.676;23.262;2023-09-30T08:17:19;95124.34;;;22.29;47.93
12077;BME280;12420;42.676;23.262;2023-09-30T08:19:46;95116.78;;;22.32;48.33
12077;BME280;12420;42.676;23.262;2023-09-30T08:22:13;95108.88;;;22.40;48.51
12077;BME280;12420;42.676;23.262;2023-09-30T08:24:40;95111.13;;;22.42;46.69
12077;BME280;12420;42.676;23.262;2023-09-30T08:27:07;95112.13;;;22.46;47.31
12077;BME280;12420;42.676;23.262;2023-09-30T08:29:33;95114.22;;;22.56;45.56
12077;BME280;12420;42.676;23.262;2023-09-30T08:32:03;95113.91;;;22.51;46.25
12077;BME280;12420;42.676;23.262;2023-09-30T08:34:30;95108.81;;;22.69;45.71
12077;BME280;12420;42.676;23.262;2023-09-30T08:36:57;95110.63;;;22.65;45.69
12077;BME280;12420;42.676;23.262;2023-09-30T08:39:24;95079.31;;;22.51;45.69
12077;BME280;12420;42.676;23.262;2023-09-30T08:41:50;95109.66;;;22.91;44.77
12077;BME280;12420;42.676;23.262;2023-09-30T08:44:18;95109.81;;;23.03;43.84
12077;BME280;12420;42.676;23.262;2023-09-30T08:46:45;95097.41;;;23.18;43.11
12077;BME280;12420;42.676;23.262;2023-09-30T08:49:15;95104.16;;;23.03;41.94
12077;BME280;12420;42.676;23.262;2023-09-30T08:51:42;95094.06;;;23.00;41.97
12077;BME280;12420;42.676;23.262;2023-09-30T08:54:10;95103.81;;;23.18;43.52
12077;BME280;12420;42.676;23.262;2023-09-30T08:56:38;95000.16;;;22.59;42.57
12077;BME280;12420;42.676;23.262;2023-09-30T08:59:11;95095.56;;;23.32;42.09
12077;BME280;12420;42.676;23.262;2023-09-30T09:01:39;95095.91;;;23.48;42.76
12077;BME280;12420;42.676;23.262;2023-09-30T09:04:07;95092.63;;;23.52;40.56
12077;BME280;12420;42.676;23.262;2023-09-30T09:06:35;95091.69;;;23.59;38.31
12077;BME280;12420;42.676;23.262;2023-09-30T09:09:14;95094.03;;;23.41;38.77
12077;BME280;12420;42.676;23.262;2023-09-30T09:11:42;95082.53;;;23.49;39.37
12077;BME280;12420;42.676;23.262;2023-09-30T09:14:08;95031.84;;;23.19;38.69
12077;BME280;12420;42.676;23.262;2023-09-30T09:16:35;95075.69;;;23.73;38.34
12077;BME280;12420;42.676;23.262;2023-09-30T09:19:13;95065.66;;;23.60;38.10
12077;BME280;12420;42.676;23.262;2023-09-30T09:21:53;95074.75;;;23.59;37.55
12077;BME280;12420;42.676;23.262;2023-09-30T09:24:28;95083.75;;;23.67;37.92
12077;BME280;12420;42.676;23.262;2023-09-30T09:27:04;95086.44;;;23.65;38.12
12077;BME280;12420;42.676;23.262;2023-09-30T09:29:31;95068.97;;;23.57;37.45
12077;BME280;12420;42.676;23.262;2023-09-30T09:32:07;95068.63;;;23.62;37.87
12077;BME280;12420;42.676;23.262;2023-09-30T09:34:36;95064.41;;;23.73;38.11
12077;BME280;12420;42.676;23.262;2023-09-30T09:37:20;95075.03;;;23.85;37.54
12077;BME280;12420;42.676;23.262;2023-09-30T09:39:52;95077.72;;;23.82;37.05
12077;BME280;12420;42.676;23.262;2023-09-30T09:42:26;95053.47;;;23.58;37.64
12077;BME280;12420;42.676;23.262;2023-09-30T09:44:55;95069.13;;;23.80;37.27
12077;BME280;12420;42.676;23.262;2023-09-30T09:47:23;95072.06;;;23.61;37.69
12077;BME280;12420;42.676;23.262;2023-09-30T09:49:51;95076.47;;;23.74;37.78
12077;BME280;12420;42.676;23.262;2023-09-30T09:52:20;95063.72;;;23.85;37.71
12077;BME280;12420;42.676;23.262;2023-09-30T09:54:48;95072.81;;;23.83;37.85
12077;BME280;12420;42.676;23.262;2023-09-30T09:57:17;95065.41;;;23.78;37.64
12077;BME280;12420;42.676;23.262;2023-09-30T09:59:45;95065.72;;;23.94;37.07
12077;BME280;12420;42.676;23.262;2023-09-30T10:02:13;95070.44;;;24.01;36.97
12077;BME280;12420;42.676;23.262;2023-09-30T10:04:41;95067.03;;;24.14;37.68
12077;BME280;12420;42.676;23.262;2023-09-30T10:07:09;95058.34;;;24.22;37.05
12077;BME280;12420;42.676;23.262;2023-09-30T10:09:43;95043.56;;;24.12;36.78
12077;BME280;12420;42.676;23.262;2023-09-30T10:12:11;95051.72;;;23.96;37.34
12077;BME280;12420;42.676;23.262;2023-09-30T10:14:38;95049.47;;;24.16;37.07
12077;BME280;12420;42.676;23.262;2023-09-30T10:17:05;95047.09;;;24.00;37.54
12077;BME280;12420;42.676;23.262;2023-09-30T10:19:32;95057.03;;;24.01;37.81
12077;BME280;12420;42.676;23.262;2023-09-30T10:22:24;95048.59;;;23.80;37.17
12077;BME280;12420;42.676;23.262;2023-09-30T10:24:54;95038.63;;;23.79;37.43
12077;BME280;12420;42.676;23.262;2023-09-30T10:27:31;94998.31;;;23.57;37.57
12077;BME280;12420;42.676;23.262;2023-09-30T10:29:58;95039.41;;;23.91;36.67
12077;BME280;12420;42.676;23.262;2023-09-30T10:35:45;95030.91;;;24.13;36.24
12077;BME280;12420;42.676;23.262;2023-09-30T10:38:38;95039.19;;;24.20;34.00
12077;BME280;12420;42.676;23.262;2023-09-30T10:41:10;95005.91;;;24.09;34.13
12077;BME280;12420;42.676;23.262;2023-09-30T10:43:39;95021.34;;;24.30;33.31
12077;BME280;12420;42.676;23.262;2023-09-30T10:46:31;95020.91;;;24.45;32.89
12077;BME280;12420;42.676;23.262;2023-09-30T10:49:29;95013.13;;;24.34;33.22
12077;BME280;12420;42.676;23.262;2023-09-30T10:51:58;95010.53;;;24.26;32.68
12077;BME280;12420;42.676;23.262;2023-09-30T10:54:27;95025.19;;;24.34;33.63
12077;BME280;12420;42.676;23.262;2023-09-30T10:56:57;95016.53;;;24.20;32.79
12077;BME280;12420;42.676;23.262;2023-09-30T10:59:27;95022.97;;;24.33;32.57
12077;BME280;12420;42.676;23.262;2023-09-30T11:01:56;94986.41;;;24.13;32.53
12077;BME280;12420;42.676;23.262;2023-09-30T11:04:26;94990.72;;;24.26;32.69
12077;BME280;12420;42.676;23.262;2023-09-30T11:06:54;95011.53;;;24.31;33.18
12077;BME280;12420;42.676;23.262;2023-09-30T11:09:22;95006.88;;;24.35;32.47
12077;BME280;12420;42.676;23.262;2023-09-30T11:11:49;95001.44;;;24.27;32.65
12077;BME280;12420;42.676;23.262;2023-09-30T11:14:19;94995.78;;;24.27;32.21
12077;BME280;12420;42.676;23.262;2023-09-30T11:16:47;94997.75;;;24.37;32.96
12077;BME280;12420;42.676;23.262;2023-09-30T11:19:14;94991.59;;;24.29;32.44
12077;BME280;12420;42.676;23.262;2023-09-30T11:21:42;94988.78;;;24.29;32.46
12077;BME280;12420;42.676;23.262;2023-09-30T11:24:10;94985.22;;;24.40;32.54
12077;BME280;12420;42.676;23.262;2023-09-30T11:26:37;94993.69;;;24.40;32.20
12077;BME280;12420;42.676;23.262;2023-09-30T11:29:08;94985.72;;;24.36;31.64
12077;BME280;12420;42.676;23.262;2023-09-30T11:31:41;94996.78;;;24.44;32.09
12077;BME280;12420;42.676;23.262;2023-09-30T11:34:09;95009.75;;;24.47;32.47
12077;BME280;12420;42.676;23.262;2023-09-30T11:36:38;94986.13;;;24.54;32.86
12077;BME280;12420;42.676;23.262;2023-09-30T11:39:05;94985.75;;;24.60;32.06
12077;BME280;12420;42.676;23.262;2023-09-30T11:41:35;94988.47;;;24.69;32.16
12077;BME280;12420;42.676;23.262;2023-09-30T11:44:05;94984.03;;;24.55;32.51
12077;BME280;12420;42.676;23.262;2023-09-30T11:46:49;94977.03;;;24.67;32.83
12077;BME280;12420;42.676;23.262;2023-09-30T11:49:30;94971.28;;;24.65;32.89
12077;BME280;12420;42.676;23.262;2023-09-30T11:51:58;94965.59;;;24.65;33.35
12077;BME280;12420;42.676;23.262;2023-09-30T11:54:32;94965.59;;;24.54;32.93
12077;BME280;12420;42.676;23.262;2023-09-30T11:57:00;94973.25;;;24.63;33.12
12077;BME280;12420;42.676;23.262;2023-09-30T11:59:27;94939.94;;;24.40;33.25
12077;BME280;12420;42.676;23.262;2023-09-30T12:01:56;94979.75;;;24.65;33.62
12077;BME280;12420;42.676;23.262;2023-09-30T12:04:22;94949.09;;;24.62;33.46
12077;BME280;12420;42.676;23.262;2023-09-30T12:06:49;94933.47;;;24.49;33.52
12077;BME280;12420;42.676;23.262;2023-09-30T12:09:18;94964.13;;;24.64;32.80
12077;BME280;12420;42.676;23.262;2023-09-30T12:11:48;94914.72;;;24.32;32.81
12077;BME280;12420;42.676;23.262;2023-09-30T12:14:15;94961.66;;;24.59;32.69
12077;BME280;12420;42.676;23.262;2023-09-30T12:16:42;94957.69;;;24.52;33.54
12077;BME280;12420;42.676;23.262;2023-09-30T12:19:12;94942.84;;;24.63;33.15
12077;BME280;12420;42.676;23.262;2023-09-30T12:21:41;94938.16;;;24.68;33.54
12077;BME280;12420;42.676;23.262;2023-09-30T12:24:08;94950.34;;;24.71;32.34
12077;BME280;12420;42.676;23.262;2023-09-30T12:26:36;94946.03;;;24.69;32.24
12077;BME280;12420;42.676;23.262;2023-09-30T12:29:06;94935.44;;;24.70;32.86
12077;BME280;12420;42.676;23.262;2023-09-30T12:31:35;94936.28;;;24.73;32.51
12077;BME280;12420;42.676;23.262;2023-09-30T12:34:01;94927.81;;;24.73;32.26
12077;BME280;12420;42.676;23.262;2023-09-30T12:36:32;94919.56;;;24.77;32.83
12077;BME280;12420;42.676;23.262;2023-09-30T12:38:59;94930.63;;;24.73;32.28
12077;BME280;12420;42.676;23.262;2023-09-30T12:41:26;94932.34;;;24.78;32.15
12077;BME280;12420;42.676;23.262;2023-09-30T12:43:54;94924.50;;;24.76;32.32
12077;BME280;12420;42.676;23.262;2023-09-30T12:46:22;94911.06;;;24.65;32.31
12077;BME280;12420;42.676;23.262;2023-09-30T12:48:50;94926.94;;;24.70;32.05
12077;BME280;12420;42.676;23.262;2023-09-30T12:51:17;94925.47;;;24.69;32.35
12077;BME280;12420;42.676;23.262;2023-09-30T12:53:45;94906.78;;;24.52;32.30
12077;BME280;12420;42.676;23.262;2023-09-30T12:56:12;94905.06;;;24.59;31.91
12077;BME280;12420;42.676;23.262;2023-09-30T12:58:39;94920.56;;;24.58;32.16
12077;BME280;12420;42.676;23.262;2023-09-30T13:01:05;94905.31;;;24.51;31.96